Ar Rayyan, Qatar
Current Conditions -  °F | °C
As of 6:58 AM on Tuesday 23 Dec 2014 (Local Time) from KQIR Reporting Station
Broken Clouds Broken Clouds  
Wind Chill: 62°   Ceiling: 10000
Heat Index: 62°   Visibility: 6mi
Dew Point: 50°   Wind: 9mph
Humidity: 64%   Direction: 320°NW
Pressure: 30.07"   Gusts: NA
Location:  25.32°N, 51.37°E
Report Text: KQIR 230358Z 32008KT 9999 BKN100 17/10 A3007 RMK AO2A SLP185 T01690100 $
Loading
Personal Weather Stations






























Interactive Weather Map New forecast layout! Learn more

10-Day Weather Forecast

Advertisements
Track Severe Weather on mobile